sensor_id;sensor_type;location;lat;lon;timestamp;pressure;altitude;pressure_sealevel;temperature;humidity
52319;BME280;38258;51.148;14.068;2023-01-20T00:02:25;97564.84;;;-2.38;100.00
52319;BME280;38258;51.148;14.068;2023-01-20T00:04:52;97562.34;;;-2.31;100.00
52319;BME280;38258;51.148;14.068;2023-01-20T00:07:19;97570.84;;;-2.36;100.00
52319;BME280;38258;51.148;14.068;2023-01-20T00:09:45;97571.72;;;-2.33;100.00
52319;BME280;38258;51.148;14.068;2023-01-20T00:12:12;97582.88;;;-2.29;100.00
52319;BME280;38258;51.148;14.068;2023-01-20T00:14:40;97576.13;;;-2.19;100.00
52319;BME280;38258;51.148;14.068;2023-01-20T00:17:07;97577.81;;;-2.20;100.00
52319;BME280;38258;51.148;14.068;2023-01-20T00:19:34;97577.78;;;-2.26;100.00
52319;BME280;38258;51.148;14.068;2023-01-20T00:22:01;97561.34;;;-2.47;100.00
52319;BME280;38258;51.148;14.068;2023-01-20T00:24:28;97589.72;;;-2.27;100.00
52319;BME280;38258;51.148;14.068;2023-01-20T00:26:54;97584.56;;;-2.30;100.00
52319;BME280;38258;51.148;14.068;2023-01-20T00:29:21;97582.81;;;-2.32;100.00
52319;BME280;38258;51.148;14.068;2023-01-20T00:31:49;97590.56;;;-2.29;100.00
52319;BME280;38258;51.148;14.068;2023-01-20T00:34:15;97595.66;;;-2.31;100.00
52319;BME280;38258;51.148;14.068;2023-01-20T00:36:42;97594.75;;;-2.34;100.00
52319;BME280;38258;51.148;14.068;2023-01-20T00:39:08;97596.41;;;-2.38;100.00
52319;BME280;38258;51.148;14.068;2023-01-20T00:41:35;97605.97;;;-2.23;100.00
52319;BME280;38258;51.148;14.068;2023-01-20T00:44:02;97601.69;;;-2.22;100.00
52319;BME280;38258;51.148;14.068;2023-01-20T00:46:28;97592.19;;;-2.34;100.00
52319;BME280;38258;51.148;14.068;2023-01-20T00:48:56;97602.59;;;-2.19;100.00
52319;BME280;38258;51.148;14.068;2023-01-20T00:51:23;97613.75;;;-2.15;100.00
52319;BME280;38258;51.148;14.068;2023-01-20T00:53:50;97612.84;;;-2.19;100.00
52319;BME280;38258;51.148;14.068;2023-01-20T00:56:16;97618.75;;;-2.24;100.00
52319;BME280;38258;51.148;14.068;2023-01-20T00:58:43;97623.88;;;-2.24;100.00
52319;BME280;38258;51.148;14.068;2023-01-20T01:01:11;97627.25;;;-2.30;100.00
52319;BME280;38258;51.148;14.068;2023-01-20T01:03:37;97630.78;;;-2.20;100.00
52319;BME280;38258;51.148;14.068;2023-01-20T01:06:07;97637.63;;;-2.18;100.00
52319;BME280;38258;51.148;14.068;2023-01-20T01:08:34;97641.94;;;-2.12;100.00
52319;BME280;38258;51.148;14.068;2023-01-20T01:11:01;97652.28;;;-2.06;100.00
52319;BME280;38258;51.148;14.068;2023-01-20T01:13:28;97651.47;;;-2.02;100.00
52319;BME280;38258;51.148;14.068;2023-01-20T01:15:55;97661.63;;;-2.09;100.00
52319;BME280;38258;51.148;14.068;2023-01-20T01:18:22;97670.25;;;-2.03;100.00
52319;BME280;38258;51.148;14.068;2023-01-20T01:20:49;97665.03;;;-2.09;100.00
52319;BME280;38258;51.148;14.068;2023-01-20T01:23:16;97671.91;;;-2.08;100.00
52319;BME280;38258;51.148;14.068;2023-01-20T01:25:43;97677.19;;;-1.92;100.00
52319;BME280;38258;51.148;14.068;2023-01-20T01:28:10;97665.09;;;-2.06;100.00
52319;BME280;38258;51.148;14.068;2023-01-20T01:30:36;97677.06;;;-2.03;100.00
52319;BME280;38258;51.148;14.068;2023-01-20T01:33:03;97664.19;;;-2.09;100.00
52319;BME280;38258;51.148;14.068;2023-01-20T01:35:30;97673.69;;;-1.97;100.00
52319;BME280;38258;51.148;14.068;2023-01-20T01:37:56;97686.53;;;-1.96;100.00
52319;BME280;38258;51.148;14.068;2023-01-20T01:40:24;97683.09;;;-1.96;100.00
52319;BME280;38258;51.148;14.068;2023-01-20T01:42:51;97678.06;;;-1.90;100.00
52319;BME280;38258;51.148;14.068;2023-01-20T01:45:23;97684.16;;;-1.77;100.00
52319;BME280;38258;51.148;14.068;2023-01-20T01:47:53;97684.09;;;-1.85;100.00
52319;BME280;38258;51.148;14.068;2023-01-20T01:50:25;97684.94;;;-1.86;100.00
52319;BME280;38258;51.148;14.068;2023-01-20T01:52:54;97678.91;;;-1.91;100.00
52319;BME280;38258;51.148;14.068;2023-01-20T01:55:25;97696.19;;;-1.72;100.00
52319;BME280;38258;51.148;14.068;2023-01-20T01:57:53;97697.78;;;-1.83;100.00
52319;BME280;38258;51.148;14.068;2023-01-20T02:00:21;97698.63;;;-1.84;100.00
52319;BME280;38258;51.148;14.068;2023-01-20T02:02:48;97694.53;;;-1.65;100.00
52319;BME280;38258;51.148;14.068;2023-01-20T02:05:16;97690.94;;;-1.81;100.00
52319;BME280;38258;51.148;14.068;2023-01-20T02:07:45;97698.72;;;-1.75;100.00
52319;BME280;38258;51.148;14.068;2023-01-20T02:10:13;97684.97;;;-1.81;100.00
52319;BME280;38258;51.148;14.068;2023-01-20T02:12:44;97695.16;;;-1.89;100.00
52319;BME280;38258;51.148;14.068;2023-01-20T02:15:12;97705.50;;;-1.81;100.00
52319;BME280;38258;51.148;14.068;2023-01-20T02:17:44;97700.31;;;-1.86;100.00
52319;BME280;38258;51.148;14.068;2023-01-20T02:20:45;97699.38;;;-1.93;100.00
52319;BME280;38258;51.148;14.068;2023-01-20T02:23:30;97702.84;;;-1.88;100.00
52319;BME280;38258;51.148;14.068;2023-01-20T02:26:26;97696.81;;;-1.93;100.00
52319;BME280;38258;51.148;14.068;2023-01-20T02:29:26;97705.34;;;-1.94;100.00
52319;BME280;38258;51.148;14.068;2023-01-20T02:32:13;97707.97;;;-1.89;100.00
52319;BME280;38258;51.148;14.068;2023-01-20T02:34:48;97716.44;;;-1.96;100.00
52319;BME280;38258;51.148;14.068;2023-01-20T02:37:22;97694.97;;;-2.08;100.00
52319;BME280;38258;51.148;14.068;2023-01-20T02:39:57;97715.53;;;-2.02;100.00
52319;BME280;38258;51.148;14.068;2023-01-20T02:42:35;97710.38;;;-2.03;100.00
52319;BME280;38258;51.148;14.068;2023-01-20T02:45:08;97717.25;;;-2.01;100.00
52319;BME280;38258;51.148;14.068;2023-01-20T02:47:42;97717.31;;;-1.94;100.00
52319;BME280;38258;51.148;14.068;2023-01-20T02:50:14;97719.84;;;-1.97;100.00
52319;BME280;38258;51.148;14.068;2023-01-20T02:52:44;97723.28;;;-1.95;100.00
52319;BME280;38258;51.148;14.068;2023-01-20T02:55:16;97728.47;;;-1.92;100.00
52319;BME280;38258;51.148;14.068;2023-01-20T02:57:47;97705.34;;;-1.97;100.00
52319;BME280;38258;51.148;14.068;2023-01-20T03:00:19;97723.31;;;-1.94;100.00
52319;BME280;38258;51.148;14.068;2023-01-20T03:02:51;97703.44;;;-2.14;100.00
52319;BME280;38258;51.148;14.068;2023-01-20T03:05:22;97736.16;;;-1.91;100.00
52319;BME280;38258;51.148;14.068;2023-01-20T03:07:50;97742.91;;;-1.97;100.00
52319;BME280;38258;51.148;14.068;2023-01-20T03:10:20;97738.72;;;-1.88;100.00
52319;BME280;38258;51.148;14.068;2023-01-20T03:12:52;97739.63;;;-1.86;100.00
52319;BME280;38258;51.148;14.068;2023-01-20T03:15:23;97728.47;;;-1.92;100.00
52319;BME280;38258;51.148;14.068;2023-01-20T03:17:52;97728.56;;;-1.81;100.00
52319;BME280;38258;51.148;14.068;2023-01-20T03:20:19;97735.31;;;-1.91;100.00
52319;BME280;38258;51.148;14.068;2023-01-20T03:22:45;97735.31;;;-1.91;100.00
52319;BME280;38258;51.148;14.068;2023-01-20T03:25:13;97745.44;;;-2.01;100.00
52319;BME280;38258;51.148;14.068;2023-01-20T03:27:40;97752.31;;;-1.98;100.00
52319;BME280;38258;51.148;14.068;2023-01-20T03:32:39;97759.16;;;-1.95;100.00
52319;BME280;38258;51.148;14.068;2023-01-20T03:35:09;97758.28;;;-1.99;100.00
52319;BME280;38258;51.148;14.068;2023-01-20T03:37:36;97755.03;;;-1.82;100.00
52319;BME280;38258;51.148;14.068;2023-01-20T03:40:04;97757.63;;;-1.79;100.00
52319;BME280;38258;51.148;14.068;2023-01-20T03:42:36;97763.69;;;-1.73;100.00
52319;BME280;38258;51.148;14.068;2023-01-20T03:45:09;97744.63;;;-1.98;100.00
52319;BME280;38258;51.148;14.068;2023-01-20T03:47:47;97766.97;;;-1.86;100.00
52319;BME280;38258;51.148;14.068;2023-01-20T03:50:29;97767.88;;;-1.81;100.00
52319;BME280;38258;51.148;14.068;2023-01-20T03:52:59;97771.38;;;-1.73;100.00
52319;BME280;38258;51.148;14.068;2023-01-20T03:55:30;97772.88;;;-1.93;100.00
52319;BME280;38258;51.148;14.068;2023-01-20T03:58:01;97777.22;;;-1.86;100.00
52319;BME280;38258;51.148;14.068;2023-01-20T04:00:30;97782.47;;;-1.77;100.00
52319;BME280;38258;51.148;14.068;2023-01-20T04:03:02;97774.69;;;-1.83;100.00
52319;BME280;38258;51.148;14.068;2023-01-20T04:05:32;97787.59;;;-1.77;100.00
52319;BME280;38258;51.148;14.068;2023-01-20T04:08:02;97782.47;;;-1.75;100.00
52319;BME280;38258;51.148;14.068;2023-01-20T04:10:33;97789.28;;;-1.79;100.00
52319;BME280;38258;51.148;14.068;2023-01-20T04:13:01;97797.06;;;-1.71;100.00
52319;BME280;38258;51.148;14.068;2023-01-20T04:15:31;97779.84;;;-1.81;100.00
52319;BME280;38258;51.148;14.068;2023-01-20T04:18:13;97793.59;;;-1.75;100.00
52319;BME280;38258;51.148;14.068;2023-01-20T04:20:42;97784.25;;;-1.68;100.00
52319;BME280;38258;51.148;14.068;2023-01-20T04:23:14;97777.38;;;-1.72;100.00
52319;BME280;38258;51.148;14.068;2023-01-20T04:25:43;97797.94;;;-1.69;100.00
52319;BME280;38258;51.148;14.068;2023-01-20T04:28:10;97797.09;;;-1.65;100.00
52319;BME280;38258;51.148;14.068;2023-01-20T04:30:36;97774.78;;;-1.77;100.00
52319;BME280;38258;51.148;14.068;2023-01-20T04:33:03;97789.44;;;-1.62;100.00
52319;BME280;38258;51.148;14.068;2023-01-20T04:35:29;97791.16;;;-1.61;100.00
52319;BME280;38258;51.148;14.068;2023-01-20T04:37:58;97790.31;;;-1.61;100.00
52319;BME280;38258;51.148;14.068;2023-01-20T04:40:25;97805.78;;;-1.52;100.00
52319;BME280;38258;51.148;14.068;2023-01-20T04:42:51;97808.38;;;-1.50;100.00
52319;BME280;38258;51.148;14.068;2023-01-20T04:45:18;97808.38;;;-1.50;100.00
52319;BME280;38258;51.148;14.068;2023-01-20T04:47:45;97803.13;;;-1.60;100.00
52319;BME280;38258;51.148;14.068;2023-01-20T04:50:12;97823.72;;;-1.55;100.00
52319;BME280;38258;51.148;14.068;2023-01-20T04:52:39;97824.53;;;-1.59;100.00
52319;BME280;38258;51.148;14.068;2023-01-20T04:55:08;97832.19;;;-1.62;100.00
52319;BME280;38258;51.148;14.068;2023-01-20T04:57:35;97826.28;;;-1.55;100.00
52319;BME280;38258;51.148;14.068;2023-01-20T05:00:03;97827.97;;;-1.57;100.00
52319;BME280;38258;51.148;14.068;2023-01-20T05:02:31;97834.81;;;-1.56;100.00
52319;BME280;38258;51.148;14.068;2023-01-20T05:04:58;97831.34;;;-1.60;100.00
52319;BME280;38258;51.148;14.068;2023-01-20T05:07:25;97846.84;;;-1.50;100.00
52319;BME280;38258;51.148;14.068;2023-01-20T05:09:51;97849.34;;;-1.55;100.00
52319;BME280;38258;51.148;14.068;2023-01-20T05:12:19;97842.47;;;-1.62;100.00
52319;BME280;38258;51.148;14.068;2023-01-20T05:14:46;97853.50;;;-1.68;100.00
52319;BME280;38258;51.148;14.068;2023-01-20T05:17:13;97850.06;;;-1.68;100.00
52319;BME280;38258;51.148;14.068;2023-01-20T05:19:40;97855.31;;;-1.59;100.00
52319;BME280;38258;51.148;14.068;2023-01-20T05:22:08;97862.91;;;-1.65;100.00
52319;BME280;38258;51.148;14.068;2023-01-20T05:24:34;97860.41;;;-1.61;100.00
52319;BME280;38258;51.148;14.068;2023-01-20T05:27:01;97861.38;;;-1.52;100.00
52319;BME280;38258;51.148;14.068;2023-01-20T05:29:30;97863.84;;;-1.59;100.00
52319;BME280;38258;51.148;14.068;2023-01-20T05:31:57;97862.25;;;-1.50;100.00
52319;BME280;38258;51.148;14.068;2023-01-20T05:34:23;97872.47;;;-1.52;100.00
52319;BME280;38258;51.148;14.068;2023-01-20T05:36:50;97874.91;;;-1.63;100.00
52319;BME280;38258;51.148;14.068;2023-01-20T05:39:19;97880.06;;;-1.60;100.00
52319;BME280;38258;51.148;14.068;2023-01-20T05:41:47;97873.19;;;-1.64;100.00
52319;BME280;38258;51.148;14.068;2023-01-20T05:44:14;97886.97;;;-1.57;100.00
52319;BME280;38258;51.148;14.068;2023-01-20T05:46:42;97878.28;;;-1.65;100.00
52319;BME280;38258;51.148;14.068;2023-01-20T05:49:09;97886.09;;;-1.59;100.00
52319;BME280;38258;51.148;14.068;2023-01-20T05:51:36;97884.38;;;-1.60;100.00
52319;BME280;38258;51.148;14.068;2023-01-20T05:54:03;97872.38;;;-1.61;100.00
52319;BME280;38258;51.148;14.068;2023-01-20T05:56:30;97896.28;;;-1.64;100.00
52319;BME280;38258;51.148;14.068;2023-01-20T05:58:57;97898.09;;;-1.57;100.00
52319;BME280;38258;51.148;14.068;2023-01-20T06:01:24;97894.69;;;-1.54;100.00
52319;BME280;38258;51.148;14.068;2023-01-20T06:03:52;97890.41;;;-1.55;100.00
52319;BME280;38258;51.148;14.068;2023-01-20T06:06:19;97881.81;;;-1.60;100.00
52319;BME280;38258;51.148;14.068;2023-01-20T06:08:46;97890.28;;;-1.66;100.00
52319;BME280;38258;51.148;14.068;2023-01-20T06:11:14;97907.53;;;-1.52;100.00
52319;BME280;38258;51.148;14.068;2023-01-20T06:13:42;97908.28;;;-1.60;100.00
52319;BME280;38258;51.148;14.068;2023-01-20T06:16:09;97908.28;;;-1.61;100.00
52319;BME280;38258;51.148;14.068;2023-01-20T06:18:38;97889.38;;;-1.71;100.00
52319;BME280;38258;51.148;14.068;2023-01-20T06:21:07;97906.56;;;-1.61;100.00
52319;BME280;38258;51.148;14.068;2023-01-20T06:23:34;97915.13;;;-1.59;100.00
52319;BME280;38258;51.148;14.068;2023-01-20T06:26:02;97924.59;;;-1.56;100.00
52319;BME280;38258;51.148;14.068;2023-01-20T06:28:29;97916.97;;;-1.48;100.00
52319;BME280;38258;51.148;14.068;2023-01-20T06:31:01;97927.88;;;-1.66;100.00
52319;BME280;38258;51.148;14.068;2023-01-20T06:33:28;97914.03;;;-1.79;100.00
52319;BME280;38258;51.148;14.068;2023-01-20T06:35:55;97930.41;;;-1.69;100.00
52319;BME280;38258;51.148;14.068;2023-01-20T06:38:24;97930.47;;;-1.65;100.00
52319;BME280;38258;51.148;14.068;2023-01-20T06:40:55;97920.78;;;-1.86;100.00
52319;BME280;38258;51.148;14.068;2023-01-20T06:43:23;97931.94;;;-1.81;100.00
52319;BME280;38258;51.148;14.068;2023-01-20T06:45:50;97927.69;;;-1.80;100.00
52319;BME280;38258;51.148;14.068;2023-01-20T06:48:17;97929.38;;;-1.81;100.00
52319;BME280;38258;51.148;14.068;2023-01-20T06:50:44;97935.44;;;-1.77;100.00
52319;BME280;38258;51.148;14.068;2023-01-20T06:53:10;97937.94;;;-1.80;100.00
52319;BME280;38258;51.148;14.068;2023-01-20T06:55:38;97940.47;;;-1.82;100.00
52319;BME280;38258;51.148;14.068;2023-01-20T06:58:05;97942.19;;;-1.82;100.00
52319;BME280;38258;51.148;14.068;2023-01-20T07:00:32;97949.00;;;-1.83;100.00
52319;BME280;38258;51.148;14.068;2023-01-20T07:02:59;97944.94;;;-1.70;100.00
52319;BME280;38258;51.148;14.068;2023-01-20T07:05:26;97948.16;;;-1.83;100.00
52319;BME280;38258;51.148;14.068;2023-01-20T07:07:52;97955.03;;;-1.81;100.00
52319;BME280;38258;51.148;14.068;2023-01-20T07:10:19;97960.16;;;-1.82;100.00
52319;BME280;38258;51.148;14.068;2023-01-20T07:12:47;97962.72;;;-1.81;100.00
52319;BME280;38258;51.148;14.068;2023-01-20T07:15:14;97964.50;;;-1.75;100.00
52319;BME280;38258;51.148;14.068;2023-01-20T07:17:41;97968.78;;;-1.76;100.00
52319;BME280;38258;51.148;14.068;2023-01-20T07:20:09;97974.69;;;-1.80;100.00
52319;BME280;38258;51.148;14.068;2023-01-20T07:22:36;97979.81;;;-1.80;100.00
52319;BME280;38258;51.148;14.068;2023-01-20T07:25:04;97979.97;;;-1.72;100.00
52319;BME280;38258;51.148;14.068;2023-01-20T07:27:31;97994.31;;;-1.82;100.00
52319;BME280;38258;51.148;14.068;2023-01-20T07:29:59;97991.09;;;-1.68;100.00
52319;BME280;38258;51.148;14.068;2023-01-20T07:32:28;98000.59;;;-1.64;100.00
52319;BME280;38258;51.148;14.068;2023-01-20T07:34:55;98006.47;;;-1.70;100.00
52319;BME280;38258;51.148;14.068;2023-01-20T07:37:22;98007.25;;;-1.76;100.00
52319;BME280;38258;51.148;14.068;2023-01-20T07:39:49;98015.84;;;-1.72;100.00
52319;BME280;38258;51.148;14.068;2023-01-20T07:42:15;98017.53;;;-1.73;100.00
52319;BME280;38258;51.148;14.068;2023-01-20T07:44:42;98022.81;;;-1.62;100.00
52319;BME280;38258;51.148;14.068;2023-01-20T07:47:10;98030.63;;;-1.55;100.00
52319;BME280;38258;51.148;14.068;2023-01-20T07:49:37;98038.97;;;-1.69;100.00
52319;BME280;38258;51.148;14.068;2023-01-20T07:52:04;98014.03;;;-1.79;100.00
52319;BME280;38258;51.148;14.068;2023-01-20T07:54:31;98037.34;;;-1.64;100.00
52319;BME280;38258;51.148;14.068;2023-01-20T07:56:58;98036.59;;;-1.57;100.00
52319;BME280;38258;51.148;14.068;2023-01-20T07:59:25;98042.59;;;-1.54;100.00
52319;BME280;38258;51.148;14.068;2023-01-20T08:01:53;98045.28;;;-1.45;100.00
52319;BME280;38258;51.148;14.068;2023-01-20T08:04:21;98052.13;;;-1.44;100.00
52319;BME280;38258;51.148;14.068;2023-01-20T08:06:48;98041.72;;;-1.55;100.00
52319;BME280;38258;51.148;14.068;2023-01-20T08:09:15;98052.84;;;-1.56;100.00
52319;BME280;38258;51.148;14.068;2023-01-20T08:11:42;98055.31;;;-1.61;100.00
52319;BME280;38258;51.148;14.068;2023-01-20T08:14:08;98058.94;;;-1.48;100.00
52319;BME280;38258;51.148;14.068;2023-01-20T08:16:35;98054.59;;;-1.53;100.00
52319;BME280;38258;51.148;14.068;2023-01-20T08:19:02;98067.31;;;-1.60;100.00
52319;BME280;38258;51.148;14.068;2023-01-20T08:21:31;98072.41;;;-1.64;100.00
52319;BME280;38258;51.148;14.068;2023-01-20T08:24:00;98073.25;;;-1.64;100.00
52319;BME280;38258;51.148;14.068;2023-01-20T08:26:28;98069.06;;;-1.57;100.00
52319;BME280;38258;51.148;14.068;2023-01-20T08:29:00;98081.84;;;-1.59;100.00
52319;BME280;38258;51.148;14.068;2023-01-20T08:31:27;98080.25;;;-1.53;100.00
52319;BME280;38258;51.148;14.068;2023-01-20T08:33:55;98087.13;;;-1.49;100.00
52319;BME280;38258;51.148;14.068;2023-01-20T08:36:24;98090.59;;;-1.47;100.00
52319;BME280;38258;51.148;14.068;2023-01-20T08:38:53;98084.69;;;-1.43;100.00
52319;BME280;38258;51.148;14.068;2023-01-20T08:41:22;98092.41;;;-1.40;100.00
52319;BME280;38258;51.148;14.068;2023-01-20T08:43:50;98099.19;;;-1.44;100.00
52319;BME280;38258;51.148;14.068;2023-01-20T08:46:18;98106.19;;;-1.33;100.00
52319;BME280;38258;51.148;14.068;2023-01-20T08:48:45;98106.13;;;-1.38;100.00
52319;BME280;38258;51.148;14.068;2023-01-20T08:51:18;98106.13;;;-1.38;100.00
52319;BME280;38258;51.148;14.068;2023-01-20T08:53:46;98107.16;;;-1.26;100.00
52319;BME280;38258;51.148;14.068;2023-01-20T08:56:15;98112.19;;;-1.33;100.00
52319;BME280;38258;51.148;14.068;2023-01-20T08:58:43;98108.75;;;-1.33;100.00
52319;BME280;38258;51.148;14.068;2023-01-20T09:01:12;98100.88;;;-1.44;100.00
52319;BME280;38258;51.148;14.068;2023-01-20T09:03:39;98101.72;;;-1.47;100.00
52319;BME280;38258;51.148;14.068;2023-01-20T09:06:07;98105.13;;;-1.48;100.00
52319;BME280;38258;51.148;14.068;2023-01-20T09:08:35;98113.81;;;-1.38;100.00
52319;BME280;38258;51.148;14.068;2023-01-20T09:11:03;98118.22;;;-1.29;100.00
52319;BME280;38258;51.148;14.068;2023-01-20T09:13:32;98118.34;;;-1.21;100.00
52319;BME280;38258;51.148;14.068;2023-01-20T09:15:59;98126.94;;;-1.16;100.00
52319;BME280;38258;51.148;14.068;2023-01-20T09:18:26;98126.69;;;-1.35;100.00
52319;BME280;38258;51.148;14.068;2023-01-20T09:20:53;98128.53;;;-1.26;100.00
52319;BME280;38258;51.148;14.068;2023-01-20T09:23:20;98124.28;;;-1.24;100.00
52319;BME280;38258;51.148;14.068;2023-01-20T09:25:46;98132.00;;;-1.22;100.00
52319;BME280;38258;51.148;14.068;2023-01-20T09:28:15;98132.94;;;-1.19;100.00
52319;BME280;38258;51.148;14.068;2023-01-20T09:30:43;98139.56;;;-1.32;100.00
52319;BME280;38258;51.148;14.068;2023-01-20T09:33:11;98137.13;;;-1.22;100.00
52319;BME280;38258;51.148;14.068;2023-01-20T09:35:38;98140.72;;;-1.11;100.00
52319;BME280;38258;51.148;14.068;2023-01-20T09:38:05;98142.16;;;-1.30;100.00
52319;BME280;38258;51.148;14.068;2023-01-20T09:40:58;98134.50;;;-1.29;100.00
52319;BME280;38258;51.148;14.068;2023-01-20T09:43:56;98144.16;;;-1.10;100.00
52319;BME280;38258;51.148;14.068;2023-01-20T09:46:41;98145.69;;;-1.23;100.00
52319;BME280;38258;51.148;14.068;2023-01-20T09:49:42;98139.72;;;-1.22;100.00
52319;BME280;38258;51.148;14.068;2023-01-20T09:52:33;98146.72;;;-1.12;100.00
52319;BME280;38258;51.148;14.068;2023-01-20T09:55:23;98121.56;;;-1.35;100.00
52319;BME280;38258;51.148;14.068;2023-01-20T09:57:59;98134.81;;;-1.05;100.00
52319;BME280;38258;51.148;14.068;2023-01-20T10:00:32;98138.28;;;-1.02;100.00
52319;BME280;38258;51.148;14.068;2023-01-20T10:03:21;98133.78;;;-1.20;100.00
52319;BME280;38258;51.148;14.068;2023-01-20T10:05:52;98135.03;;;-0.90;100.00
52319;BME280;38258;51.148;14.068;2023-01-20T10:08:25;98137.94;;;-1.25;100.00
52319;BME280;38258;51.148;14.068;2023-01-20T10:10:57;98139.13;;;-1.04;100.00
52319;BME280;38258;51.148;14.068;2023-01-20T10:13:31;98138.09;;;-1.16;100.00
52319;BME280;38258;51.148;14.068;2023-01-20T10:16:04;98149.66;;;-0.84;100.00
52319;BME280;38258;51.148;14.068;2023-01-20T10:18:38;98145.84;;;-1.12;100.00
52319;BME280;38258;51.148;14.068;2023-01-20T10:21:12;98149.91;;;-1.27;100.00
52319;BME280;38258;51.148;14.068;2023-01-20T10:23:47;98153.50;;;-1.16;100.00
52319;BME280;38258;51.148;14.068;2023-01-20T10:26:20;98149.41;;;-1.01;100.00
52319;BME280;38258;51.148;14.068;2023-01-20T10:28:54;98145.75;;;-1.17;100.00
52319;BME280;38258;51.148;14.068;2023-01-20T10:31:25;98144.03;;;-1.18;100.00
52319;BME280;38258;51.148;14.068;2023-01-20T10:33:57;98153.41;;;-1.20;100.00
52319;BME280;38258;51.148;14.068;2023-01-20T10:36:28;98152.63;;;-1.18;100.00
52319;BME280;38258;51.148;14.068;2023-01-20T10:39:00;98153.41;;;-1.22;100.00
52319;BME280;38258;51.148;14.068;2023-01-20T10:41:35;98150.09;;;-1.15;100.00
52319;BME280;38258;51.148;14.068;2023-01-20T10:44:09;98163.72;;;-1.19;100.00
52319;BME280;38258;51.148;14.068;2023-01-20T10:47:00;98166.22;;;-1.23;100.00
52319;BME280;38258;51.148;14.068;2023-01-20T10:49:42;98158.56;;;-1.20;100.00
52319;BME280;38258;51.148;14.068;2023-01-20T10:52:21;98162.00;;;-1.18;100.00
52319;BME280;38258;51.148;14.068;2023-01-20T10:54:58;98156.94;;;-1.14;100.00
52319;BME280;38258;51.148;14.068;2023-01-20T10:57:29;98164.59;;;-1.15;100.00
52319;BME280;38258;51.148;14.068;2023-01-20T11:00:00;98168.03;;;-1.16;100.00
52319;BME280;38258;51.148;14.068;2023-01-20T11:02:29;98172.56;;;-1.00;100.00
52319;BME280;38258;51.148;14.068;2023-01-20T11:05:02;98173.81;;;-1.30;100.00
52319;BME280;38258;51.148;14.068;2023-01-20T11:07:31;98175.69;;;-1.21;100.00
52319;BME280;38258;51.148;14.068;2023-01-20T11:10:01;98174.19;;;-1.06;100.00
52319;BME280;38258;51.148;14.068;2023-01-20T11:12:39;98175.13;;;-0.98;100.00
52319;BME280;38258;51.148;14.068;2023-01-20T11:15:16;98178.41;;;-1.08;100.00
52319;BME280;38258;51.148;14.068;2023-01-20T11:17:44;98178.25;;;-1.19;100.00
52319;BME280;38258;51.148;14.068;2023-01-20T11:20:18;98187.56;;;-1.26;100.00
52319;BME280;38258;51.148;14.068;2023-01-20T11:22:47;98185.81;;;-1.27;100.00
52319;BME280;38258;51.148;14.068;2023-01-20T11:25:23;98180.84;;;-1.18;100.00
52319;BME280;38258;51.148;14.068;2023-01-20T11:27:50;98184.38;;;-1.09;100.00
52319;BME280;38258;51.148;14.068;2023-01-20T11:30:26;98192.16;;;-1.05;100.00
52319;BME280;38258;51.148;14.068;2023-01-20T11:33:16;98189.28;;;-1.25;100.00
52319;BME280;38258;51.148;14.068;2023-01-20T11:36:00;98194.53;;;-1.17;100.00
52319;BME280;38258;51.148;14.068;2023-01-20T11:38:28;98194.59;;;-1.12;100.00
52319;BME280;38258;51.148;14.068;2023-01-20T11:40:55;98202.56;;;-0.95;100.00
52319;BME280;38258;51.148;14.068;2023-01-20T11:43:30;98206.72;;;-1.04;100.00
52319;BME280;38258;51.148;14.068;2023-01-20T11:46:11;98208.06;;;-1.27;100.00
52319;BME280;38258;51.148;14.068;2023-01-20T11:48:40;98211.50;;;-1.27;100.00
52319;BME280;38258;51.148;14.068;2023-01-20T11:51:19;98222.75;;;-1.19;100.00
52319;BME280;38258;51.148;14.068;2023-01-20T11:53:47;98224.53;;;-1.15;100.00
52319;BME280;38258;51.148;14.068;2023-01-20T11:56:18;98226.31;;;-1.09;100.00
52319;BME280;38258;51.148;14.068;2023-01-20T11:58:51;98237.31;;;-1.16;100.00
52319;BME280;38258;51.148;14.068;2023-01-20T12:01:23;98235.69;;;-1.12;100.00
52319;BME280;38258;51.148;14.068;2023-01-20T12:06:50;98239.84;;;-1.21;100.00
52319;BME280;38258;51.148;14.068;2023-01-20T12:09:24;98242.31;;;-1.24;100.00
52319;BME280;38258;51.148;14.068;2023-01-20T12:11:57;98245.06;;;-1.15;100.00
52319;BME280;38258;51.148;14.068;2023-01-20T12:14:28;98249.31;;;-1.15;100.00
52319;BME280;38258;51.148;14.068;2023-01-20T12:17:05;98256.13;;;-1.17;100.00
52319;BME280;38258;51.148;14.068;2023-01-20T12:19:45;98245.84;;;-1.19;100.00
52319;BME280;38258;51.148;14.068;2023-01-20T12:22:23;98235.47;;;-1.25;100.00
52319;BME280;38258;51.148;14.068;2023-01-20T12:24:55;98258.81;;;-1.11;100.00
52319;BME280;38258;51.148;14.068;2023-01-20T12:27:52;98250.88;;;-1.26;100.00
52319;BME280;38258;51.148;14.068;2023-01-20T12:30:53;98255.28;;;-1.18;100.00
52319;BME280;38258;51.148;14.068;2023-01-20T12:33:23;98254.41;;;-1.18;100.00
52319;BME280;38258;51.148;14.068;2023-01-20T12:36:15;98259.53;;;-1.20;100.00
52319;BME280;38258;51.148;14.068;2023-01-20T12:39:00;98239.41;;;-1.46;100.00
52319;BME280;38258;51.148;14.068;2023-01-20T12:41:47;98271.53;;;-1.17;100.00
52319;BME280;38258;51.148;14.068;2023-01-20T12:44:20;98254.34;;;-1.21;100.00
52319;BME280;38258;51.148;14.068;2023-01-20T12:46:54;98270.44;;;-1.32;100.00
52319;BME280;38258;51.148;14.068;2023-01-20T12:49:42;98273.00;;;-1.33;100.00
52319;BME280;38258;51.148;14.068;2023-01-20T12:52:23;98261.81;;;-1.37;100.00
52319;BME280;38258;51.148;14.068;2023-01-20T12:55:04;98273.13;;;-1.25;100.00
52319;BME280;38258;51.148;14.068;2023-01-20T12:57:57;98274.22;;;-1.11;100.00
52319;BME280;38258;51.148;14.068;2023-01-20T13:00:53;98275.72;;;-1.22;100.00
52319;BME280;38258;51.148;14.068;2023-01-20T13:04:03;98276.78;;;-1.11;100.00
52319;BME280;38258;51.148;14.068;2023-01-20T13:07:00;98285.28;;;-1.14;100.00